AEA280F LXGB-LPMA
Flight info
| Callsign | AEA280F |
|---|---|
| Flight time | 1h 54m |
| Altitude | 38000 |
| Route | LINTO UN10 TNR UN726 BAMBA N726 ORTOP DCT NARTA/N0457F410 DCT RULET DCT RAKUN |
| Aircraft | B38M/M-SDE1FGHILORVWXY/HB1 |
Departure
| Time | 2026-05-05 22:33 |
|---|---|
| Airport | Gibraltar Airport (LXGB) |
Arrival
| Time | 2026-05-06 00:27 |
|---|---|
| Airport | Cristiano Ronaldo International Airport (LPMA) |
| Time | Latitude | Longitude | Altitude | Speed | Heading |
|---|---|---|---|---|---|
| 2026-05-05 22:09 | 36.15306 | -5.34578 | 19 ft | 0 kts | 357° |
| 2026-05-05 22:23 | 36.15302 | -5.34578 | 19 ft | 3 kts | 357° |
| 2026-05-05 22:23 | 36.15279 | -5.34576 | 19 ft | 3 kts | 357° |
| 2026-05-05 22:24 | 36.15257 | -5.34577 | 19 ft | 3 kts | 38° |
| 2026-05-05 22:24 | 36.15250 | -5.34590 | 21 ft | 0 kts | 87° |
| 2026-05-05 22:27 | 36.15250 | -5.34588 | 21 ft | 1 kts | 89° |
| 2026-05-05 22:27 | 36.15241 | -5.34559 | 20 ft | 7 kts | 111° |
| 2026-05-05 22:27 | 36.15236 | -5.34479 | 19 ft | 11 kts | 89° |
| 2026-05-05 22:28 | 36.15239 | -5.34366 | 17 ft | 15 kts | 86° |
| 2026-05-05 22:28 | 36.15246 | -5.34233 | 18 ft | 16 kts | 86° |
| 2026-05-05 22:28 | 36.15252 | -5.34094 | 20 ft | 17 kts | 87° |
| 2026-05-05 22:28 | 36.15215 | -5.34033 | 20 ft | 0 kts | 181° |
| 2026-05-05 22:29 | 36.15214 | -5.34033 | 20 ft | 1 kts | 180° |
| 2026-05-05 22:30 | 36.15190 | -5.34019 | 24 ft | 9 kts | 152° |
| 2026-05-05 22:30 | 36.15148 | -5.34052 | 21 ft | 11 kts | 272° |
| 2026-05-05 22:30 | 36.15148 | -5.34058 | 21 ft | 0 kts | 269° |
| 2026-05-05 22:31 | 36.15149 | -5.34070 | 21 ft | 6 kts | 275° |
| 2026-05-05 22:31 | 36.15148 | -5.34080 | 21 ft | 0 kts | 267° |
| 2026-05-05 22:32 | 36.15148 | -5.34082 | 21 ft | 4 kts | 267° |
| 2026-05-05 22:33 | 36.15135 | -5.34474 | 21 ft | 86 kts | 268° |
| 2026-05-05 22:33 | 36.15104 | -5.35514 | 27 ft | 153 kts | 268° |
| 2026-05-05 22:33 | 36.15026 | -5.36946 | 524 ft | 177 kts | 261° |
| 2026-05-05 22:33 | 36.14455 | -5.38235 | 1638 ft | 171 kts | 225° |
| 2026-05-05 22:34 | 36.13500 | -5.39187 | 2327 ft | 185 kts | 230° |
| 2026-05-05 22:34 | 36.12674 | -5.40517 | 2719 ft | 206 kts | 240° |
| 2026-05-05 22:34 | 36.11830 | -5.42075 | 3179 ft | 230 kts | 240° |
| 2026-05-05 22:34 | 36.10903 | -5.43795 | 3837 ft | 242 kts | 240° |
| 2026-05-05 22:35 | 36.09953 | -5.45572 | 4603 ft | 256 kts | 239° |
| 2026-05-05 22:35 | 36.08941 | -5.47472 | 5256 ft | 270 kts | 239° |
| 2026-05-05 22:35 | 36.07916 | -5.49398 | 6312 ft | 266 kts | 238° |
| 2026-05-05 22:35 | 36.06894 | -5.51323 | 7259 ft | 267 kts | 237° |
| 2026-05-05 22:36 | 36.05875 | -5.53239 | 8243 ft | 269 kts | 238° |
| 2026-05-05 22:36 | 36.04839 | -5.55191 | 9133 ft | 273 kts | 238° |
| 2026-05-05 22:36 | 36.03795 | -5.57158 | 10060 ft | 274 kts | 238° |
| 2026-05-05 22:36 | 36.02727 | -5.59166 | 10615 ft | 288 kts | 238° |
| 2026-05-05 22:37 | 36.01586 | -5.61310 | 10942 ft | 308 kts | 238° |
| 2026-05-05 22:37 | 36.00372 | -5.63591 | 11265 ft | 327 kts | 238° |
| 2026-05-05 22:37 | 35.99099 | -5.65982 | 11714 ft | 338 kts | 238° |
| 2026-05-05 22:37 | 35.97802 | -5.68414 | 12478 ft | 340 kts | 238° |
| 2026-05-05 22:38 | 35.96494 | -5.70866 | 13155 ft | 344 kts | 238° |
| 2026-05-05 22:38 | 35.95175 | -5.73339 | 13846 ft | 347 kts | 238° |
| 2026-05-05 22:38 | 35.93843 | -5.75831 | 14448 ft | 350 kts | 238° |
| 2026-05-05 22:38 | 35.92497 | -5.78349 | 15044 ft | 353 kts | 238° |
| 2026-05-05 22:39 | 35.91140 | -5.80887 | 15622 ft | 356 kts | 238° |
| 2026-05-05 22:39 | 35.89767 | -5.83452 | 16183 ft | 359 kts | 238° |
| 2026-05-05 22:39 | 35.88385 | -5.86031 | 16750 ft | 362 kts | 238° |
| 2026-05-05 22:39 | 35.86989 | -5.88634 | 17289 ft | 365 kts | 238° |
| 2026-05-05 22:40 | 35.85580 | -5.91262 | 17833 ft | 368 kts | 238° |
| 2026-05-05 22:40 | 35.84196 | -5.93922 | 18335 ft | 370 kts | 244° |
| 2026-05-05 22:40 | 35.83391 | -5.96883 | 18783 ft | 370 kts | 261° |
| 2026-05-05 22:40 | 35.83048 | -6.00036 | 19218 ft | 373 kts | 263° |
| 2026-05-05 22:41 | 35.82730 | -6.03214 | 19689 ft | 374 kts | 263° |
| 2026-05-05 22:41 | 35.82432 | -6.06406 | 20155 ft | 376 kts | 263° |
| 2026-05-05 22:41 | 35.82145 | -6.09619 | 20606 ft | 378 kts | 264° |
| 2026-05-05 22:41 | 35.81864 | -6.12843 | 21063 ft | 380 kts | 264° |
| 2026-05-05 22:42 | 35.81584 | -6.16092 | 21521 ft | 382 kts | 264° |
| 2026-05-05 22:42 | 35.81304 | -6.19347 | 21983 ft | 384 kts | 264° |
| 2026-05-05 22:42 | 35.81021 | -6.22626 | 22459 ft | 386 kts | 264° |
| 2026-05-05 22:42 | 35.80737 | -6.25921 | 22931 ft | 388 kts | 264° |
| 2026-05-05 22:43 | 35.80667 | -6.29245 | 23388 ft | 390 kts | 277° |
| 2026-05-05 22:43 | 35.81192 | -6.32530 | 23832 ft | 393 kts | 279° |
| 2026-05-05 22:43 | 35.81739 | -6.35848 | 24222 ft | 395 kts | 280° |
| 2026-05-05 22:43 | 35.82303 | -6.39168 | 24666 ft | 396 kts | 280° |
| 2026-05-05 22:44 | 35.82881 | -6.42493 | 25093 ft | 398 kts | 281° |
| 2026-05-05 22:44 | 35.83523 | -6.45823 | 25512 ft | 400 kts | 283° |
| 2026-05-05 22:44 | 35.84235 | -6.49140 | 25934 ft | 402 kts | 283° |
| 2026-05-05 22:44 | 35.84944 | -6.52483 | 26349 ft | 403 kts | 282° |
| 2026-05-05 22:45 | 35.85651 | -6.55840 | 26752 ft | 405 kts | 282° |
| 2026-05-05 22:45 | 35.86359 | -6.59212 | 27148 ft | 407 kts | 282° |
| 2026-05-05 22:45 | 35.87069 | -6.62599 | 27562 ft | 408 kts | 282° |
| 2026-05-05 22:45 | 35.87780 | -6.65993 | 27941 ft | 410 kts | 282° |
| 2026-05-05 22:46 | 35.88493 | -6.69404 | 28317 ft | 412 kts | 282° |
| 2026-05-05 22:46 | 35.89209 | -6.72837 | 28686 ft | 414 kts | 282° |
| 2026-05-05 22:46 | 35.89927 | -6.76285 | 29060 ft | 415 kts | 282° |
| 2026-05-05 22:46 | 35.90645 | -6.79736 | 29421 ft | 417 kts | 282° |
| 2026-05-05 22:47 | 35.91365 | -6.83200 | 29868 ft | 416 kts | 282° |
| 2026-05-05 22:47 | 35.92080 | -6.86652 | 30342 ft | 414 kts | 282° |
| 2026-05-05 22:47 | 35.92792 | -6.90087 | 30775 ft | 412 kts | 282° |
| 2026-05-05 22:47 | 35.93499 | -6.93509 | 31169 ft | 411 kts | 282° |
| 2026-05-05 22:48 | 35.94203 | -6.96917 | 31575 ft | 410 kts | 282° |
| 2026-05-05 22:48 | 35.94903 | -7.00318 | 31976 ft | 408 kts | 282° |
| 2026-05-05 22:48 | 35.95601 | -7.03708 | 32373 ft | 407 kts | 282° |
| 2026-05-05 22:48 | 35.96296 | -7.07091 | 32767 ft | 406 kts | 281° |
| 2026-05-05 22:49 | 35.96987 | -7.10459 | 33156 ft | 404 kts | 281° |
| 2026-05-05 22:49 | 35.97677 | -7.13827 | 33537 ft | 403 kts | 281° |
| 2026-05-05 22:49 | 35.98362 | -7.17177 | 33923 ft | 402 kts | 281° |
| 2026-05-05 22:49 | 35.99044 | -7.20518 | 34273 ft | 401 kts | 281° |
| 2026-05-05 22:50 | 35.99724 | -7.23852 | 34581 ft | 400 kts | 281° |
| 2026-05-05 22:50 | 36.00401 | -7.27177 | 34874 ft | 399 kts | 281° |
| 2026-05-05 22:50 | 36.01075 | -7.30488 | 35179 ft | 398 kts | 281° |
| 2026-05-05 22:50 | 36.01748 | -7.33800 | 35472 ft | 397 kts | 281° |
| 2026-05-05 22:51 | 36.02226 | -7.37131 | 35731 ft | 392 kts | 269° |
| 2026-05-05 22:51 | 36.01909 | -7.40443 | 36031 ft | 388 kts | 256° |
| 2026-05-05 22:51 | 36.01204 | -7.43663 | 36236 ft | 389 kts | 255° |
| 2026-05-05 22:51 | 36.00454 | -7.46878 | 36433 ft | 390 kts | 255° |
| 2026-05-05 22:52 | 35.99679 | -7.50083 | 36673 ft | 389 kts | 254° |
| 2026-05-05 22:52 | 35.98887 | -7.53281 | 36907 ft | 389 kts | 254° |
| 2026-05-05 22:52 | 35.98089 | -7.56464 | 37149 ft | 388 kts | 254° |
| 2026-05-05 22:52 | 35.97286 | -7.59642 | 37592 ft | 387 kts | 254° |
| 2026-05-05 22:53 | 35.96476 | -7.62840 | 37528 ft | 393 kts | 253° |
| 2026-05-05 22:53 | 35.94818 | -7.69363 | 37435 ft | 404 kts | 253° |
| 2026-05-05 22:54 | 35.93122 | -7.76019 | 37645 ft | 407 kts | 253° |
| 2026-05-05 22:54 | 35.92271 | -7.79352 | 37821 ft | 407 kts | 253° |
| 2026-05-05 22:54 | 35.91707 | -7.81558 | 37942 ft | 407 kts | 253° |
| 2026-05-05 22:55 | 35.90011 | -7.88181 | 38025 ft | 400 kts | 253° |
| 2026-05-05 22:55 | 35.88891 | -7.92548 | 38129 ft | 401 kts | 253° |
| 2026-05-05 22:55 | 35.88332 | -7.94723 | 38052 ft | 401 kts | 253° |
| 2026-05-05 22:56 | 35.86650 | -8.01256 | 38067 ft | 400 kts | 253° |
| 2026-05-05 22:56 | 35.84963 | -8.07797 | 38063 ft | 400 kts | 253° |
| 2026-05-05 22:57 | 35.83277 | -8.14332 | 38067 ft | 400 kts | 253° |
| 2026-05-05 22:57 | 35.81580 | -8.20861 | 38066 ft | 400 kts | 253° |
| 2026-05-05 22:58 | 35.79882 | -8.27394 | 38066 ft | 400 kts | 253° |
| 2026-05-05 22:58 | 35.78182 | -8.33914 | 38071 ft | 400 kts | 253° |
| 2026-05-05 22:59 | 35.76479 | -8.40435 | 38075 ft | 400 kts | 253° |
| 2026-05-05 22:59 | 35.74774 | -8.46946 | 38072 ft | 400 kts | 253° |
| 2026-05-05 23:00 | 35.72208 | -8.56713 | 38076 ft | 400 kts | 253° |
| 2026-05-05 23:00 | 35.70493 | -8.63219 | 38074 ft | 399 kts | 253° |
| 2026-05-05 23:01 | 35.68776 | -8.69720 | 38072 ft | 399 kts | 253° |
| 2026-05-05 23:01 | 35.67057 | -8.76207 | 38077 ft | 399 kts | 253° |
| 2026-05-05 23:02 | 35.65348 | -8.82648 | 38083 ft | 399 kts | 253° |
| 2026-05-05 23:02 | 35.63613 | -8.89166 | 38080 ft | 399 kts | 253° |
| 2026-05-05 23:03 | 35.61896 | -8.95603 | 38089 ft | 399 kts | 253° |
| 2026-05-05 23:03 | 35.60164 | -9.02079 | 38084 ft | 399 kts | 253° |
| 2026-05-05 23:04 | 35.58416 | -9.08597 | 38094 ft | 399 kts | 253° |
| 2026-05-05 23:04 | 35.56678 | -9.15065 | 38082 ft | 399 kts | 253° |
| 2026-05-05 23:05 | 35.54936 | -9.21531 | 38090 ft | 399 kts | 253° |
| 2026-05-05 23:05 | 35.53192 | -9.27992 | 38091 ft | 399 kts | 253° |
| 2026-05-05 23:06 | 35.51454 | -9.34413 | 38085 ft | 399 kts | 252° |
| 2026-05-05 23:06 | 35.49700 | -9.40877 | 38091 ft | 399 kts | 252° |
| 2026-05-05 23:07 | 35.47945 | -9.47328 | 38095 ft | 399 kts | 252° |
| 2026-05-05 23:07 | 35.46175 | -9.53821 | 38098 ft | 398 kts | 252° |
| 2026-05-05 23:08 | 35.44414 | -9.60261 | 38094 ft | 398 kts | 252° |
| 2026-05-05 23:08 | 35.42663 | -9.66657 | 38100 ft | 398 kts | 252° |
| 2026-05-05 23:09 | 35.40895 | -9.73094 | 38095 ft | 398 kts | 252° |
| 2026-05-05 23:09 | 35.39126 | -9.79522 | 38099 ft | 398 kts | 252° |
| 2026-05-05 23:10 | 35.37352 | -9.85950 | 38105 ft | 398 kts | 252° |
| 2026-05-05 23:10 | 35.35572 | -9.92385 | 38105 ft | 398 kts | 252° |
| 2026-05-05 23:11 | 35.33793 | -9.98804 | 38100 ft | 398 kts | 252° |
| 2026-05-05 23:11 | 35.32010 | -10.05222 | 38106 ft | 398 kts | 252° |
| 2026-05-05 23:12 | 35.30223 | -10.11639 | 38109 ft | 398 kts | 252° |
| 2026-05-05 23:12 | 35.28433 | -10.18050 | 38107 ft | 398 kts | 252° |
| 2026-05-05 23:13 | 35.26640 | -10.24459 | 38117 ft | 398 kts | 252° |
| 2026-05-05 23:13 | 35.24842 | -10.30871 | 38107 ft | 398 kts | 252° |
| 2026-05-05 23:14 | 35.23041 | -10.37277 | 38116 ft | 398 kts | 252° |
| 2026-05-05 23:14 | 35.21236 | -10.43682 | 38112 ft | 398 kts | 252° |
| 2026-05-05 23:15 | 35.19428 | -10.50086 | 38118 ft | 398 kts | 252° |
| 2026-05-05 23:15 | 35.17615 | -10.56490 | 38109 ft | 399 kts | 252° |
| 2026-05-05 23:16 | 35.15799 | -10.62890 | 38117 ft | 399 kts | 251° |
| 2026-05-05 23:16 | 35.13978 | -10.69296 | 38117 ft | 399 kts | 251° |
| 2026-05-05 23:17 | 35.12153 | -10.75698 | 38117 ft | 399 kts | 251° |
| 2026-05-05 23:17 | 35.10324 | -10.82099 | 38116 ft | 399 kts | 251° |
| 2026-05-05 23:18 | 35.08493 | -10.88492 | 38117 ft | 399 kts | 251° |
| 2026-05-05 23:18 | 35.06657 | -10.94894 | 38122 ft | 399 kts | 251° |
| 2026-05-05 23:19 | 35.04818 | -11.01287 | 38118 ft | 399 kts | 251° |
| 2026-05-05 23:19 | 35.02975 | -11.07681 | 38122 ft | 399 kts | 251° |
| 2026-05-05 23:20 | 35.01125 | -11.14081 | 38127 ft | 400 kts | 251° |
| 2026-05-05 23:20 | 34.99273 | -11.20476 | 38125 ft | 400 kts | 251° |
| 2026-05-05 23:21 | 34.97418 | -11.26867 | 38123 ft | 400 kts | 251° |
| 2026-05-05 23:21 | 34.95557 | -11.33264 | 38134 ft | 400 kts | 251° |
| 2026-05-05 23:22 | 34.93692 | -11.39660 | 38133 ft | 400 kts | 251° |
| 2026-05-05 23:22 | 34.91825 | -11.46051 | 38132 ft | 400 kts | 251° |
| 2026-05-05 23:23 | 34.89949 | -11.52454 | 38136 ft | 401 kts | 251° |
| 2026-05-05 23:23 | 34.88074 | -11.58842 | 38137 ft | 401 kts | 251° |
| 2026-05-05 23:24 | 34.86194 | -11.65231 | 38137 ft | 401 kts | 251° |
| 2026-05-05 23:24 | 34.84311 | -11.71618 | 38135 ft | 401 kts | 251° |
| 2026-05-05 23:25 | 34.82424 | -11.78003 | 38137 ft | 401 kts | 251° |
| 2026-05-05 23:25 | 34.80534 | -11.84386 | 38136 ft | 401 kts | 251° |
| 2026-05-05 23:26 | 34.78638 | -11.90774 | 38141 ft | 401 kts | 251° |
| 2026-05-05 23:26 | 34.76740 | -11.97153 | 38143 ft | 401 kts | 251° |
| 2026-05-05 23:27 | 34.74838 | -12.03533 | 38138 ft | 401 kts | 251° |
| 2026-05-05 23:27 | 34.72932 | -12.09909 | 38142 ft | 401 kts | 251° |
| 2026-05-05 23:28 | 34.71023 | -12.16284 | 38144 ft | 401 kts | 251° |
| 2026-05-05 23:28 | 34.69111 | -12.22655 | 38139 ft | 401 kts | 250° |
| 2026-05-05 23:29 | 34.67196 | -12.29023 | 38144 ft | 401 kts | 250° |
| 2026-05-05 23:29 | 34.65275 | -12.35395 | 38147 ft | 401 kts | 250° |
| 2026-05-05 23:30 | 34.63678 | -12.40681 | 38143 ft | 401 kts | 250° |
| 2026-05-05 23:30 | 34.61426 | -12.48122 | 38144 ft | 401 kts | 250° |
| 2026-05-05 23:31 | 34.59486 | -12.54515 | 38148 ft | 401 kts | 250° |
| 2026-05-05 23:31 | 34.57880 | -12.59797 | 38146 ft | 401 kts | 250° |
| 2026-05-05 23:32 | 34.55630 | -12.67183 | 38152 ft | 401 kts | 250° |
| 2026-05-05 23:32 | 34.54003 | -12.72509 | 38148 ft | 402 kts | 250° |
| 2026-05-05 23:33 | 34.52062 | -12.78855 | 38149 ft | 402 kts | 250° |
| 2026-05-05 23:33 | 34.50114 | -12.85208 | 38147 ft | 402 kts | 250° |
| 2026-05-05 23:34 | 34.48163 | -12.91558 | 38150 ft | 402 kts | 250° |
| 2026-05-05 23:34 | 34.46207 | -12.97909 | 38152 ft | 402 kts | 250° |
| 2026-05-05 23:35 | 34.44248 | -13.04258 | 38153 ft | 402 kts | 250° |
| 2026-05-05 23:35 | 34.42297 | -13.10565 | 38156 ft | 402 kts | 250° |
| 2026-05-05 23:36 | 34.40319 | -13.16949 | 38153 ft | 402 kts | 250° |
| 2026-05-05 23:36 | 34.38360 | -13.23254 | 38155 ft | 403 kts | 250° |
| 2026-05-05 23:37 | 34.36387 | -13.29595 | 38157 ft | 403 kts | 250° |
| 2026-05-05 23:37 | 34.34395 | -13.35979 | 38155 ft | 403 kts | 250° |
| 2026-05-05 23:38 | 34.32426 | -13.42279 | 38154 ft | 403 kts | 250° |
| 2026-05-05 23:38 | 34.30441 | -13.48617 | 38158 ft | 403 kts | 250° |
| 2026-05-05 23:39 | 34.28451 | -13.54957 | 38153 ft | 403 kts | 250° |
| 2026-05-05 23:39 | 34.26457 | -13.61297 | 38158 ft | 403 kts | 250° |
| 2026-05-05 23:40 | 34.24459 | -13.67633 | 38153 ft | 403 kts | 250° |
| 2026-05-05 23:40 | 34.22459 | -13.73966 | 38155 ft | 403 kts | 250° |
| 2026-05-05 23:41 | 34.20455 | -13.80296 | 38154 ft | 404 kts | 250° |
| 2026-05-05 23:41 | 34.18445 | -13.86633 | 38156 ft | 404 kts | 250° |
| 2026-05-05 23:42 | 34.16428 | -13.92978 | 38158 ft | 404 kts | 250° |
| 2026-05-05 23:42 | 34.14408 | -13.99317 | 38157 ft | 404 kts | 250° |
| 2026-05-05 23:43 | 34.12386 | -14.05652 | 38162 ft | 405 kts | 250° |
| 2026-05-05 23:43 | 34.10359 | -14.11989 | 38159 ft | 405 kts | 249° |
| 2026-05-05 23:44 | 34.08327 | -14.18327 | 38159 ft | 405 kts | 249° |
| 2026-05-05 23:44 | 34.06289 | -14.24672 | 38155 ft | 405 kts | 249° |
| 2026-05-05 23:45 | 34.04248 | -14.31009 | 38125 ft | 404 kts | 249° |
| 2026-05-05 23:45 | 34.03244 | -14.34128 | 37779 ft | 395 kts | 249° |
| 2026-05-05 23:45 | 34.02256 | -14.37187 | 37360 ft | 389 kts | 249° |
| 2026-05-05 23:46 | 34.01268 | -14.40248 | 36475 ft | 395 kts | 249° |
| 2026-05-05 23:46 | 34.00277 | -14.43313 | 36093 ft | 388 kts | 249° |
| 2026-05-05 23:46 | 33.99306 | -14.46311 | 35821 ft | 380 kts | 249° |
| 2026-05-05 23:46 | 33.98352 | -14.49257 | 35549 ft | 387 kts | 249° |
| 2026-05-05 23:47 | 33.97360 | -14.52316 | 35243 ft | 396 kts | 249° |
| 2026-05-05 23:47 | 33.96349 | -14.55430 | 34946 ft | 401 kts | 249° |
| 2026-05-05 23:47 | 33.95333 | -14.58556 | 34664 ft | 401 kts | 249° |
| 2026-05-05 23:47 | 33.94314 | -14.61687 | 34392 ft | 401 kts | 249° |
| 2026-05-05 23:48 | 33.93296 | -14.64815 | 34112 ft | 401 kts | 249° |
| 2026-05-05 23:48 | 33.92278 | -14.67938 | 33785 ft | 401 kts | 249° |
| 2026-05-05 23:48 | 33.91257 | -14.71066 | 33427 ft | 402 kts | 249° |
| 2026-05-05 23:48 | 33.90233 | -14.74202 | 33073 ft | 403 kts | 249° |
| 2026-05-05 23:49 | 33.89206 | -14.77345 | 32726 ft | 404 kts | 249° |
| 2026-05-05 23:49 | 33.88174 | -14.80497 | 32375 ft | 406 kts | 249° |
| 2026-05-05 23:49 | 33.87137 | -14.83661 | 32038 ft | 407 kts | 249° |
| 2026-05-05 23:49 | 33.86095 | -14.86840 | 31691 ft | 408 kts | 249° |
| 2026-05-05 23:50 | 33.85049 | -14.90024 | 31364 ft | 410 kts | 249° |
| 2026-05-05 23:50 | 33.83999 | -14.93221 | 31040 ft | 411 kts | 249° |
| 2026-05-05 23:50 | 33.82946 | -14.96422 | 30726 ft | 413 kts | 249° |
| 2026-05-05 23:50 | 33.81886 | -14.99644 | 30409 ft | 414 kts | 249° |
| 2026-05-05 23:51 | 33.80823 | -15.02870 | 30074 ft | 416 kts | 249° |
| 2026-05-05 23:51 | 33.79756 | -15.06106 | 29701 ft | 417 kts | 249° |
| 2026-05-05 23:51 | 33.78684 | -15.09353 | 29340 ft | 418 kts | 249° |
| 2026-05-05 23:51 | 33.77611 | -15.12602 | 28972 ft | 417 kts | 249° |
| 2026-05-05 23:52 | 33.76539 | -15.15843 | 28597 ft | 415 kts | 249° |
| 2026-05-05 23:52 | 33.75497 | -15.18990 | 28230 ft | 413 kts | 249° |
| 2026-05-05 23:52 | 33.74414 | -15.22256 | 27990 ft | 412 kts | 249° |
| 2026-05-05 23:52 | 33.73351 | -15.25462 | 27811 ft | 411 kts | 249° |
| 2026-05-05 23:53 | 33.72293 | -15.28647 | 27633 ft | 411 kts | 249° |
| 2026-05-05 23:53 | 33.71233 | -15.31836 | 27446 ft | 410 kts | 249° |
| 2026-05-05 23:53 | 33.70178 | -15.35006 | 27281 ft | 409 kts | 249° |
| 2026-05-05 23:53 | 33.69123 | -15.38174 | 26910 ft | 407 kts | 249° |
| 2026-05-05 23:54 | 33.68089 | -15.41277 | 26390 ft | 404 kts | 249° |
| 2026-05-05 23:54 | 33.67046 | -15.44402 | 25888 ft | 401 kts | 249° |
| 2026-05-05 23:54 | 33.66011 | -15.47501 | 25384 ft | 399 kts | 249° |
| 2026-05-05 23:54 | 33.64981 | -15.50580 | 24891 ft | 397 kts | 249° |
| 2026-05-05 23:55 | 33.63955 | -15.53647 | 24384 ft | 394 kts | 249° |
| 2026-05-05 23:55 | 33.62934 | -15.56693 | 23893 ft | 392 kts | 249° |
| 2026-05-05 23:55 | 33.61920 | -15.59717 | 23335 ft | 390 kts | 249° |
| 2026-05-05 23:55 | 33.60907 | -15.62735 | 22803 ft | 389 kts | 249° |
| 2026-05-05 23:56 | 33.59895 | -15.65746 | 22311 ft | 388 kts | 249° |
| 2026-05-05 23:56 | 33.58886 | -15.68747 | 21826 ft | 388 kts | 249° |
| 2026-05-05 23:56 | 33.57878 | -15.71743 | 21344 ft | 387 kts | 249° |
| 2026-05-05 23:56 | 33.56873 | -15.74725 | 20857 ft | 386 kts | 249° |
| 2026-05-05 23:57 | 33.55722 | -15.77632 | 20438 ft | 387 kts | 238° |
| 2026-05-05 23:57 | 33.53969 | -15.80078 | 19901 ft | 388 kts | 226° |
| 2026-05-05 23:57 | 33.52061 | -15.82359 | 19398 ft | 386 kts | 227° |
| 2026-05-05 23:57 | 33.50157 | -15.84620 | 18924 ft | 385 kts | 227° |
| 2026-05-05 23:58 | 33.48255 | -15.86862 | 18458 ft | 383 kts | 227° |
| 2026-05-05 23:58 | 33.46355 | -15.89092 | 17946 ft | 381 kts | 227° |
| 2026-05-05 23:58 | 33.44463 | -15.91308 | 17473 ft | 378 kts | 227° |
| 2026-05-05 23:58 | 33.42589 | -15.93500 | 17025 ft | 375 kts | 226° |
| 2026-05-05 23:59 | 33.40731 | -15.95673 | 16585 ft | 372 kts | 227° |
| 2026-05-05 23:59 | 33.38885 | -15.97830 | 16156 ft | 369 kts | 227° |
| 2026-05-05 23:59 | 33.37047 | -15.99977 | 15725 ft | 367 kts | 226° |
| 2026-05-05 23:59 | 33.35227 | -16.02100 | 15307 ft | 365 kts | 226° |
| 2026-05-06 00:00 | 33.33418 | -16.04210 | 14867 ft | 362 kts | 226° |
| 2026-05-06 00:00 | 33.31641 | -16.06280 | 14473 ft | 349 kts | 226° |
| 2026-05-06 00:00 | 33.29931 | -16.08271 | 14099 ft | 338 kts | 226° |
| 2026-05-06 00:00 | 33.28277 | -16.10198 | 13686 ft | 327 kts | 226° |
| 2026-05-06 00:01 | 33.26671 | -16.12066 | 13298 ft | 317 kts | 225° |
| 2026-05-06 00:01 | 33.25116 | -16.13874 | 12929 ft | 308 kts | 226° |
| 2026-05-06 00:01 | 33.23597 | -16.15640 | 12588 ft | 302 kts | 225° |
| 2026-05-06 00:01 | 33.22094 | -16.17387 | 12243 ft | 300 kts | 225° |
| 2026-05-06 00:02 | 33.20604 | -16.19117 | 11903 ft | 298 kts | 226° |
| 2026-05-06 00:02 | 33.19124 | -16.20835 | 11577 ft | 293 kts | 225° |
| 2026-05-06 00:02 | 33.17699 | -16.22486 | 11424 ft | 278 kts | 226° |
| 2026-05-06 00:02 | 33.16335 | -16.24069 | 11279 ft | 271 kts | 225° |
| 2026-05-06 00:03 | 33.14986 | -16.25632 | 11146 ft | 270 kts | 226° |
| 2026-05-06 00:03 | 33.13641 | -16.27190 | 11002 ft | 269 kts | 225° |
| 2026-05-06 00:03 | 33.12302 | -16.28741 | 10882 ft | 268 kts | 225° |
| 2026-05-06 00:03 | 33.10963 | -16.30290 | 10746 ft | 267 kts | 225° |
| 2026-05-06 00:04 | 33.09630 | -16.31832 | 10631 ft | 267 kts | 225° |
| 2026-05-06 00:04 | 33.08296 | -16.33374 | 10509 ft | 267 kts | 225° |
| 2026-05-06 00:04 | 33.06966 | -16.34912 | 10379 ft | 266 kts | 225° |
| 2026-05-06 00:04 | 33.05644 | -16.36439 | 10249 ft | 264 kts | 225° |
| 2026-05-06 00:05 | 33.02992 | -16.39501 | 9686 ft | 266 kts | 225° |
| 2026-05-06 00:05 | 33.01665 | -16.41031 | 9407 ft | 264 kts | 225° |
| 2026-05-06 00:05 | 33.00349 | -16.42550 | 9119 ft | 263 kts | 224° |
| 2026-05-06 00:06 | 32.99037 | -16.44063 | 8836 ft | 262 kts | 224° |
| 2026-05-06 00:06 | 32.97727 | -16.45572 | 8554 ft | 261 kts | 224° |
| 2026-05-06 00:06 | 32.96425 | -16.47072 | 8261 ft | 261 kts | 224° |
| 2026-05-06 00:06 | 32.95125 | -16.48569 | 7996 ft | 259 kts | 224° |
| 2026-05-06 00:07 | 32.93828 | -16.50063 | 7724 ft | 259 kts | 224° |
| 2026-05-06 00:07 | 32.92517 | -16.51532 | 7437 ft | 259 kts | 222° |
| 2026-05-06 00:07 | 32.91172 | -16.52965 | 7131 ft | 259 kts | 222° |
| 2026-05-06 00:07 | 32.89837 | -16.54391 | 6866 ft | 257 kts | 222° |
| 2026-05-06 00:08 | 32.88509 | -16.55812 | 6595 ft | 256 kts | 221° |
| 2026-05-06 00:08 | 32.87190 | -16.57226 | 6299 ft | 255 kts | 221° |
| 2026-05-06 00:08 | 32.85873 | -16.58636 | 5997 ft | 255 kts | 221° |
| 2026-05-06 00:08 | 32.84643 | -16.60195 | 5450 ft | 265 kts | 239° |
| 2026-05-06 00:09 | 32.84134 | -16.62273 | 5181 ft | 262 kts | 271° |
| 2026-05-06 00:09 | 32.84518 | -16.64321 | 5110 ft | 251 kts | 299° |
| 2026-05-06 00:09 | 32.85591 | -16.65911 | 4851 ft | 248 kts | 325° |
| 2026-05-06 00:09 | 32.87116 | -16.66775 | 4517 ft | 242 kts | 350° |
| 2026-05-06 00:10 | 32.88773 | -16.66783 | 4229 ft | 235 kts | 15° |
| 2026-05-06 00:10 | 32.90241 | -16.66038 | 3930 ft | 230 kts | 38° |
| 2026-05-06 00:10 | 32.91443 | -16.64805 | 3642 ft | 228 kts | 43° |
| 2026-05-06 00:10 | 32.92558 | -16.63443 | 3264 ft | 230 kts | 48° |
| 2026-05-06 00:11 | 32.93267 | -16.62517 | 3132 ft | 227 kts | 47° |
| 2026-05-06 00:11 | 32.94329 | -16.61157 | 3052 ft | 223 kts | 47° |
| 2026-05-06 00:11 | 32.95386 | -16.59812 | 3000 ft | 221 kts | 51° |
| 2026-05-06 00:11 | 32.96088 | -16.57576 | 2989 ft | 224 kts | 87° |
| 2026-05-06 00:12 | 32.95751 | -16.55762 | 2991 ft | 231 kts | 113° |
| 2026-05-06 00:12 | 32.94712 | -16.54278 | 2998 ft | 239 kts | 139° |
| 2026-05-06 00:12 | 32.93717 | -16.53638 | 3000 ft | 245 kts | 157° |
| 2026-05-06 00:12 | 32.92021 | -16.53403 | 2988 ft | 250 kts | 184° |
| 2026-05-06 00:13 | 32.90396 | -16.54106 | 2985 ft | 250 kts | 213° |
| 2026-05-06 00:13 | 32.89056 | -16.55399 | 3068 ft | 247 kts | 219° |
| 2026-05-06 00:13 | 32.87754 | -16.56724 | 3028 ft | 242 kts | 220° |
| 2026-05-06 00:13 | 32.86525 | -16.57999 | 3011 ft | 229 kts | 221° |
| 2026-05-06 00:14 | 32.85345 | -16.59239 | 2971 ft | 226 kts | 223° |
| 2026-05-06 00:14 | 32.84504 | -16.60777 | 2953 ft | 222 kts | 255° |
| 2026-05-06 00:14 | 32.84470 | -16.62571 | 2973 ft | 217 kts | 288° |
| 2026-05-06 00:14 | 32.85198 | -16.64088 | 3024 ft | 209 kts | 320° |
| 2026-05-06 00:15 | 32.86396 | -16.64958 | 3047 ft | 204 kts | 347° |
| 2026-05-06 00:15 | 32.87783 | -16.65039 | 3005 ft | 200 kts | 15° |
| 2026-05-06 00:15 | 32.89072 | -16.64353 | 3029 ft | 212 kts | 34° |
| 2026-05-06 00:15 | 32.90302 | -16.63296 | 2985 ft | 222 kts | 39° |
| 2026-05-06 00:16 | 32.91539 | -16.62165 | 2985 ft | 225 kts | 38° |
| 2026-05-06 00:16 | 32.92789 | -16.61045 | 2992 ft | 224 kts | 38° |
| 2026-05-06 00:16 | 32.94033 | -16.59933 | 2989 ft | 223 kts | 38° |
| 2026-05-06 00:16 | 32.95160 | -16.58697 | 2990 ft | 220 kts | 56° |
| 2026-05-06 00:17 | 32.95630 | -16.56976 | 2986 ft | 224 kts | 86° |
| 2026-05-06 00:17 | 32.95248 | -16.55170 | 3002 ft | 232 kts | 116° |
| 2026-05-06 00:17 | 32.94112 | -16.53792 | 3000 ft | 241 kts | 145° |
| 2026-05-06 00:17 | 32.92491 | -16.53220 | 2990 ft | 249 kts | 175° |
| 2026-05-06 00:18 | 32.90776 | -16.53534 | 2989 ft | 249 kts | 194° |
| 2026-05-06 00:18 | 32.89264 | -16.54419 | 2934 ft | 237 kts | 213° |
| 2026-05-06 00:18 | 32.87964 | -16.55542 | 2890 ft | 223 kts | 214° |
| 2026-05-06 00:18 | 32.86732 | -16.56594 | 2842 ft | 215 kts | 213° |
| 2026-05-06 00:19 | 32.85514 | -16.57619 | 2815 ft | 214 kts | 214° |
| 2026-05-06 00:19 | 32.84302 | -16.58631 | 2811 ft | 211 kts | 214° |
| 2026-05-06 00:19 | 32.83101 | -16.59628 | 2695 ft | 209 kts | 213° |
| 2026-05-06 00:19 | 32.81910 | -16.60610 | 2515 ft | 209 kts | 213° |
| 2026-05-06 00:20 | 32.80721 | -16.61589 | 2307 ft | 206 kts | 213° |
| 2026-05-06 00:20 | 32.79544 | -16.62553 | 2132 ft | 206 kts | 213° |
| 2026-05-06 00:20 | 32.78374 | -16.63512 | 1984 ft | 199 kts | 212° |
| 2026-05-06 00:20 | 32.77262 | -16.64424 | 1782 ft | 191 kts | 213° |
| 2026-05-06 00:21 | 32.76175 | -16.65314 | 1605 ft | 189 kts | 213° |
| 2026-05-06 00:21 | 32.75110 | -16.66185 | 1425 ft | 184 kts | 214° |
| 2026-05-06 00:21 | 32.74064 | -16.67039 | 1253 ft | 182 kts | 213° |
| 2026-05-06 00:21 | 32.73013 | -16.67896 | 1112 ft | 184 kts | 214° |
| 2026-05-06 00:22 | 32.71963 | -16.68753 | 1163 ft | 183 kts | 213° |
| 2026-05-06 00:22 | 32.70916 | -16.69606 | 1137 ft | 183 kts | 214° |
| 2026-05-06 00:22 | 32.69877 | -16.70455 | 1110 ft | 179 kts | 213° |
| 2026-05-06 00:22 | 32.68852 | -16.71292 | 1108 ft | 180 kts | 213° |
| 2026-05-06 00:23 | 32.67818 | -16.72135 | 1091 ft | 180 kts | 213° |
| 2026-05-06 00:23 | 32.66789 | -16.72975 | 1091 ft | 180 kts | 213° |
| 2026-05-06 00:23 | 32.65756 | -16.73816 | 1095 ft | 179 kts | 213° |
| 2026-05-06 00:23 | 32.64744 | -16.74642 | 1076 ft | 173 kts | 214° |
| 2026-05-06 00:24 | 32.63759 | -16.75443 | 1109 ft | 171 kts | 213° |
| 2026-05-06 00:24 | 32.62781 | -16.76239 | 1104 ft | 170 kts | 213° |
| 2026-05-06 00:24 | 32.61852 | -16.77087 | 1064 ft | 170 kts | 229° |
| 2026-05-06 00:24 | 32.61531 | -16.78364 | 1028 ft | 161 kts | 278° |
| 2026-05-06 00:25 | 32.61944 | -16.79544 | 1177 ft | 153 kts | 315° |
| 2026-05-06 00:25 | 32.62797 | -16.80240 | 1248 ft | 148 kts | 343° |
| 2026-05-06 00:25 | 32.63779 | -16.80518 | 1156 ft | 142 kts | 1° |
| 2026-05-06 00:25 | 32.64754 | -16.80534 | 983 ft | 140 kts | 6° |
| 2026-05-06 00:26 | 32.65702 | -16.80444 | 848 ft | 136 kts | 12° |
| 2026-05-06 00:26 | 32.66596 | -16.80098 | 805 ft | 134 kts | 23° |
| 2026-05-06 00:26 | 32.67462 | -16.79643 | 785 ft | 134 kts | 22° |
| 2026-05-06 00:26 | 32.68278 | -16.79154 | 622 ft | 133 kts | 32° |
| 2026-05-06 00:27 | 32.68956 | -16.78381 | 372 ft | 134 kts | 43° |
| 2026-05-06 00:27 | 32.69625 | -16.77629 | 198 ft | 129 kts | 40° |
| 2026-05-06 00:27 | 32.70172 | -16.77001 | 191 ft | 77 kts | 44° |
| 2026-05-06 00:27 | 32.70368 | -16.76814 | 195 ft | 10 kts | 14° |
| 2026-05-06 00:28 | 32.70389 | -16.76764 | 199 ft | 6 kts | 139° |
| 2026-05-06 00:28 | 32.70360 | -16.76774 | 193 ft | 6 kts | 221° |
| 2026-05-06 00:28 | 32.70314 | -16.76827 | 195 ft | 11 kts | 224° |
| 2026-05-06 00:28 | 32.70260 | -16.76890 | 198 ft | 11 kts | 224° |
| 2026-05-06 00:29 | 32.70201 | -16.76958 | 195 ft | 12 kts | 224° |
| 2026-05-06 00:29 | 32.70136 | -16.77033 | 199 ft | 13 kts | 224° |
| 2026-05-06 00:29 | 32.70065 | -16.77115 | 198 ft | 16 kts | 224° |
| 2026-05-06 00:29 | 32.69977 | -16.77174 | 188 ft | 16 kts | 185° |
| 2026-05-06 00:30 | 32.69876 | -16.77177 | 187 ft | 14 kts | 180° |
| 2026-05-06 00:30 | 32.69784 | -16.77244 | 182 ft | 16 kts | 226° |
| 2026-05-06 00:30 | 32.69687 | -16.77364 | 172 ft | 22 kts | 226° |
| 2026-05-06 00:30 | 32.69607 | -16.77451 | 171 ft | 11 kts | 189° |
| 2026-05-06 00:31 | 32.69567 | -16.77418 | 172 ft | 6 kts | 136° |
| 2026-05-06 00:31 | 32.69555 | -16.77406 | 172 ft | 3 kts | 138° |
| 2026-05-06 00:31 | 32.69540 | -16.77390 | 172 ft | 0 kts | 139° |
| 2026-05-06 00:31 | 32.69539 | -16.77389 | 172 ft | 0 kts | 139° |
| 2026-05-06 01:04 | 32.69539 | -16.77388 | 172 ft | 0 kts | 137° |
| 2026-05-06 01:12 | 32.69541 | -16.77391 | 172 ft | 0 kts | 137° |